createdAt,value
2018-06-19T00:01:20.046Z,15.50
2018-06-19T00:03:47.765Z,15.50
2018-06-19T00:06:15.467Z,15.50
2018-06-19T00:08:43.126Z,15.60
2018-06-19T00:11:11.243Z,15.60
2018-06-19T00:13:39.047Z,15.60
2018-06-19T00:16:06.745Z,15.50
2018-06-19T00:18:37.994Z,15.50
2018-06-19T00:21:10.192Z,15.50
2018-06-19T00:23:37.814Z,15.50
2018-06-19T00:26:05.424Z,15.40
2018-06-19T00:28:36.606Z,15.40
2018-06-19T00:31:04.342Z,15.30
2018-06-19T00:33:32.019Z,15.30
2018-06-19T00:35:59.665Z,15.30
2018-06-19T00:38:27.346Z,15.30
2018-06-19T00:40:54.954Z,15.20
2018-06-19T00:43:22.587Z,15.20
2018-06-19T00:45:50.228Z,15.20
2018-06-19T00:48:17.859Z,15.20
2018-06-19T00:50:45.501Z,15.30
2018-06-19T00:53:13.151Z,15.30
2018-06-19T00:55:40.807Z,15.20
2018-06-19T00:58:08.462Z,15.30
2018-06-19T01:00:36.177Z,15.40
2018-06-19T01:03:03.825Z,15.50
2018-06-19T01:05:31.506Z,15.50
2018-06-19T01:07:59.144Z,15.60
2018-06-19T01:10:26.772Z,15.60
2018-06-19T01:12:54.422Z,15.70
2018-06-19T01:15:22.092Z,15.70
2018-06-19T01:17:49.719Z,15.70
2018-06-19T01:20:17.338Z,15.80
2018-06-19T01:22:44.975Z,15.80
2018-06-19T01:25:12.622Z,15.80
2018-06-19T01:27:40.280Z,15.80
2018-06-19T01:30:07.974Z,15.80
2018-06-19T01:32:35.605Z,15.70
2018-06-19T01:35:03.276Z,15.70
2018-06-19T01:37:30.918Z,15.70
2018-06-19T01:39:58.566Z,15.70
2018-06-19T01:42:26.201Z,15.70
2018-06-19T01:44:53.810Z,15.70
2018-06-19T01:47:21.444Z,15.70
2018-06-19T01:49:49.090Z,15.70
2018-06-19T01:52:16.737Z,15.80
2018-06-19T01:54:44.388Z,15.80
2018-06-19T01:57:12.043Z,15.80
2018-06-19T01:59:39.673Z,15.80
2018-06-19T02:02:07.337Z,15.80
2018-06-19T02:04:35.377Z,15.80
2018-06-19T02:07:03.090Z,15.70
2018-06-19T02:09:30.742Z,15.70
2018-06-19T02:11:58.370Z,15.70
2018-06-19T02:14:26.062Z,15.70
2018-06-19T02:16:53.698Z,15.70
2018-06-19T02:19:21.366Z,15.70
2018-06-19T02:21:48.996Z,15.70
2018-06-19T02:24:16.597Z,15.60
2018-06-19T02:26:44.234Z,15.60
2018-06-19T02:29:11.874Z,15.60
2018-06-19T02:31:39.490Z,15.50
2018-06-19T02:34:07.140Z,15.50
2018-06-19T02:36:34.792Z,15.60
2018-06-19T02:39:02.558Z,15.60
2018-06-19T02:41:30.181Z,15.60
2018-06-19T02:43:57.803Z,15.60
2018-06-19T02:46:25.420Z,15.60
2018-06-19T02:48:52.993Z,15.60
2018-06-19T02:51:20.645Z,15.50
2018-06-19T02:53:48.329Z,15.50
2018-06-19T02:56:15.967Z,15.50
2018-06-19T02:58:43.623Z,15.50
2018-06-19T03:01:11.305Z,15.50
2018-06-19T03:03:38.915Z,15.50
2018-06-19T03:06:06.538Z,15.50
2018-06-19T03:08:34.198Z,15.50
2018-06-19T03:11:01.827Z,15.50
2018-06-19T03:13:29.485Z,15.50
2018-06-19T03:15:57.076Z,15.50
2018-06-19T03:18:24.760Z,15.50
2018-06-19T03:20:52.688Z,15.50
2018-06-19T03:23:20.337Z,15.50
2018-06-19T03:25:47.966Z,15.50
2018-06-19T03:28:15.576Z,15.50
2018-06-19T03:30:43.251Z,15.50
2018-06-19T03:33:10.891Z,15.40
2018-06-19T03:35:38.546Z,15.30
2018-06-19T03:38:06.183Z,15.30
2018-06-19T03:40:33.798Z,15.30
2018-06-19T03:43:01.404Z,15.40
2018-06-19T03:47:56.576Z,15.50
2018-06-19T03:50:24.197Z,15.50
2018-06-19T03:52:51.818Z,15.40
2018-06-19T03:55:19.474Z,15.50
2018-06-19T03:57:47.110Z,15.40
2018-06-19T04:00:14.774Z,15.50
2018-06-19T04:02:42.394Z,15.50
2018-06-19T04:05:10.249Z,15.50
2018-06-19T04:07:37.877Z,15.40
2018-06-19T04:10:05.518Z,15.40
2018-06-19T04:12:33.808Z,15.40
2018-06-19T04:15:01.451Z,15.40
2018-06-19T04:17:29.048Z,15.40
2018-06-19T04:19:57.488Z,15.50
2018-06-19T04:22:26.497Z,15.70
2018-06-19T04:24:54.225Z,15.80
2018-06-19T04:27:22.039Z,15.80
2018-06-19T04:29:49.650Z,16.00
2018-06-19T04:32:17.296Z,16.20
2018-06-19T04:34:44.915Z,16.40
2018-06-19T04:37:12.516Z,16.60
2018-06-19T04:39:40.120Z,16.80
2018-06-19T04:42:07.778Z,17.00
2018-06-19T04:44:35.402Z,17.20
2018-06-19T04:47:03.265Z,17.30
2018-06-19T04:49:30.978Z,17.40
2018-06-19T04:51:58.586Z,17.60
2018-06-19T04:54:26.228Z,17.70
2018-06-19T04:56:53.816Z,17.80
2018-06-19T04:59:21.490Z,18.00
2018-06-19T05:01:49.178Z,18.10
2018-06-19T05:04:16.819Z,18.30
2018-06-19T05:06:44.444Z,18.30
2018-06-19T05:09:13.319Z,18.50
2018-06-19T05:11:41.994Z,18.60
2018-06-19T05:14:10.192Z,18.70
2018-06-19T05:16:38.127Z,18.80
2018-06-19T05:19:05.782Z,18.90
2018-06-19T05:21:33.402Z,19.00
2018-06-19T05:24:01.071Z,19.10
2018-06-19T05:26:28.703Z,19.20
2018-06-19T05:28:56.648Z,19.30
2018-06-19T05:31:24.322Z,19.40
2018-06-19T05:33:51.958Z,19.60
2018-06-19T05:36:19.691Z,19.60
2018-06-19T05:38:47.336Z,19.70
2018-06-19T05:43:42.510Z,20.00
2018-06-19T05:46:10.173Z,20.20
2018-06-19T05:48:37.815Z,20.40
2018-06-19T05:51:05.470Z,20.60
2018-06-19T05:53:33.133Z,20.80
2018-06-19T05:56:00.782Z,20.70
2018-06-19T05:58:28.414Z,20.50
2018-06-19T06:00:56.042Z,20.30
2018-06-19T06:03:23.689Z,20.40
2018-06-19T06:05:51.367Z,20.50
2018-06-19T06:08:19.025Z,20.60
2018-06-19T06:10:46.650Z,20.80
2018-06-19T06:13:14.286Z,20.90
2018-06-19T06:15:42.236Z,20.80
2018-06-19T06:18:09.820Z,20.60
2018-06-19T06:20:37.477Z,20.50
2018-06-19T06:23:05.214Z,20.50
2018-06-19T06:25:32.862Z,20.40
2018-06-19T06:28:00.482Z,20.40
2018-06-19T06:30:28.110Z,20.40
2018-06-19T06:32:55.754Z,20.50
2018-06-19T06:35:23.382Z,20.50
2018-06-19T06:37:51.246Z,20.50
2018-06-19T06:40:18.882Z,20.60
2018-06-19T06:42:46.531Z,20.50
2018-06-19T06:45:14.262Z,20.50
2018-06-19T06:47:41.904Z,20.60
2018-06-19T06:50:09.609Z,20.60
2018-06-19T06:52:37.179Z,20.70
2018-06-19T06:55:04.969Z,20.70
2018-06-19T06:57:32.659Z,20.80
2018-06-19T07:00:00.282Z,20.70
2018-06-19T07:02:27.886Z,20.80
2018-06-19T07:04:55.525Z,20.70
2018-06-19T07:07:23.166Z,20.60
2018-06-19T07:09:50.809Z,20.60
2018-06-19T07:12:18.434Z,20.50
2018-06-19T07:14:46.080Z,20.40
2018-06-19T07:17:13.750Z,20.40
2018-06-19T07:19:41.399Z,20.40
2018-06-19T07:22:09.026Z,20.50
2018-06-19T07:24:36.642Z,20.50
2018-06-19T07:27:04.286Z,20.40
2018-06-19T07:29:31.933Z,20.50
2018-06-19T07:31:59.607Z,20.50
2018-06-19T07:34:27.230Z,20.50
2018-06-19T07:36:54.851Z,20.60
2018-06-19T07:39:22.490Z,20.70
2018-06-19T07:41:50.097Z,20.70
2018-06-19T07:44:17.742Z,20.70
2018-06-19T07:46:45.349Z,20.70
2018-06-19T07:49:12.996Z,20.80
2018-06-19T07:51:40.654Z,20.80
2018-06-19T07:54:08.305Z,20.80
2018-06-19T07:56:35.981Z,20.80
2018-06-19T07:59:03.911Z,20.80
2018-06-19T08:01:31.522Z,20.80
2018-06-19T08:03:59.131Z,20.90
2018-06-19T08:06:26.742Z,20.90
2018-06-19T08:08:54.398Z,20.90
2018-06-19T08:11:22.065Z,21.00
2018-06-19T08:13:49.713Z,21.10
2018-06-19T08:16:17.358Z,21.10
2018-06-19T08:18:45.000Z,21.10
2018-06-19T08:21:12.634Z,21.20
2018-06-19T08:23:40.269Z,21.30
2018-06-19T08:26:07.906Z,21.40
2018-06-19T08:28:35.566Z,21.60
2018-06-19T08:31:03.218Z,21.80
2018-06-19T08:33:31.087Z,22.10
2018-06-19T08:35:58.701Z,22.30
2018-06-19T08:38:26.342Z,22.50
2018-06-19T08:40:53.991Z,22.50
2018-06-19T08:43:21.621Z,22.60
2018-06-19T08:45:49.714Z,22.80
2018-06-19T08:48:17.349Z,23.00
2018-06-19T08:50:44.982Z,23.00
2018-06-19T08:53:12.772Z,23.10
2018-06-19T08:55:40.407Z,23.10
2018-06-19T08:58:08.029Z,23.10
2018-06-19T09:00:35.715Z,23.10
2018-06-19T09:03:03.313Z,23.10
2018-06-19T09:05:31.044Z,23.30
2018-06-19T09:10:26.356Z,23.80
2018-06-19T09:12:53.986Z,24.00
2018-06-19T09:15:21.631Z,24.30
2018-06-19T09:17:49.273Z,24.10
2018-06-19T09:20:16.934Z,23.60
2018-06-19T09:22:44.596Z,23.40
2018-06-19T09:25:12.247Z,23.20
2018-06-19T09:27:39.882Z,23.00
2018-06-19T09:30:07.566Z,22.80
2018-06-19T09:32:35.453Z,22.60
2018-06-19T09:35:03.324Z,22.50
2018-06-19T09:37:31.031Z,22.50
2018-06-19T09:39:58.648Z,22.30
2018-06-19T09:42:26.286Z,22.20
2018-06-19T09:44:53.913Z,22.30
2018-06-19T09:47:21.609Z,22.30
2018-06-19T09:49:49.278Z,22.30
2018-06-19T09:52:16.888Z,22.40
2018-06-19T09:54:44.769Z,22.30
2018-06-19T09:57:12.445Z,22.40
2018-06-19T09:59:40.414Z,22.60
2018-06-19T10:02:08.143Z,22.90
2018-06-19T10:04:35.764Z,23.10
2018-06-19T10:07:03.442Z,23.30
2018-06-19T10:09:31.122Z,23.50
2018-06-19T10:11:58.891Z,23.60
2018-06-19T10:14:26.554Z,23.60
2018-06-19T10:16:54.236Z,23.60
2018-06-19T10:19:21.859Z,23.80
2018-06-19T10:21:49.558Z,24.00
2018-06-19T10:24:17.202Z,24.00
2018-06-19T10:26:45.000Z,24.00
2018-06-19T10:29:12.638Z,23.90
2018-06-19T10:31:40.286Z,23.60
2018-06-19T10:34:07.943Z,23.30
2018-06-19T10:36:35.606Z,23.10
2018-06-19T10:39:03.983Z,23.20
2018-06-19T10:41:31.602Z,23.30
2018-06-19T10:43:59.225Z,23.40
2018-06-19T10:46:26.885Z,23.30
2018-06-19T10:48:54.698Z,23.20
2018-06-19T10:51:22.326Z,23.00
2018-06-19T10:53:49.990Z,22.90
2018-06-19T10:56:17.648Z,22.80
2018-06-19T10:58:45.300Z,22.70
2018-06-19T11:01:13.072Z,22.80
2018-06-19T11:03:40.726Z,22.80
2018-06-19T11:06:08.388Z,22.90
2018-06-19T11:08:36.084Z,22.90
2018-06-19T11:11:03.785Z,22.80
2018-06-19T11:13:31.484Z,22.80
2018-06-19T11:15:59.115Z,22.70
2018-06-19T11:18:26.779Z,22.70
2018-06-19T11:20:54.502Z,22.80
2018-06-19T11:23:22.214Z,22.80
2018-06-19T11:25:49.893Z,22.90
2018-06-19T11:28:17.596Z,22.90
2018-06-19T11:30:45.290Z,23.00
2018-06-19T11:33:13.123Z,23.10
2018-06-19T11:35:40.874Z,23.10
2018-06-19T11:38:08.517Z,23.10
2018-06-19T11:40:36.159Z,23.10
2018-06-19T11:43:04.004Z,23.10
2018-06-19T11:45:31.670Z,23.10
2018-06-19T11:47:59.298Z,23.10
2018-06-19T11:50:26.938Z,23.10
2018-06-19T11:52:54.594Z,23.50
2018-06-19T11:55:22.232Z,23.90
2018-06-19T11:57:49.862Z,24.40
2018-06-19T12:00:17.553Z,24.70
2018-06-19T12:02:45.197Z,24.70
2018-06-19T12:05:12.814Z,24.50
2018-06-19T12:07:42.052Z,24.00
2018-06-19T12:10:10.244Z,23.80
2018-06-19T12:12:38.512Z,23.50
2018-06-19T12:15:06.182Z,23.60
2018-06-19T12:17:33.799Z,23.70
2018-06-19T12:20:01.527Z,23.80
2018-06-19T12:22:29.222Z,24.00
2018-06-19T12:24:57.046Z,24.40
2018-06-19T12:27:24.697Z,24.80
2018-06-19T12:29:52.514Z,25.10
2018-06-19T12:32:20.210Z,25.40
2018-06-19T12:34:47.893Z,25.80
2018-06-19T12:37:15.522Z,25.80
2018-06-19T12:39:43.154Z,25.50
2018-06-19T12:42:10.806Z,25.10
2018-06-19T12:44:38.461Z,24.80
2018-06-19T12:47:06.106Z,24.70
2018-06-19T12:49:44.902Z,24.80
2018-06-19T12:52:23.741Z,25.00
2018-06-19T12:55:28.712Z,25.00
2018-06-19T12:57:56.390Z,24.80
2018-06-19T13:00:24.127Z,24.70
2018-06-19T13:03:03.742Z,24.60
2018-06-19T13:05:42.706Z,24.40
2018-06-19T13:08:10.326Z,24.40
2018-06-19T13:10:38.026Z,24.30
2018-06-19T13:13:27.498Z,24.10
2018-06-19T13:15:55.554Z,24.10
2018-06-19T13:18:37.640Z,23.90
2018-06-19T13:21:05.354Z,23.90
2018-06-19T13:23:33.073Z,23.80
2018-06-19T13:26:00.721Z,23.70
2018-06-19T13:29:50.349Z,23.60
2018-06-19T13:32:17.985Z,23.60
2018-06-19T13:34:45.734Z,23.50
2018-06-19T13:37:14.426Z,23.50
2018-06-19T13:39:42.602Z,23.50
2018-06-19T13:42:25.330Z,23.50
2018-06-19T13:44:58.760Z,23.50
2018-06-19T13:47:26.446Z,23.50
2018-06-19T13:49:54.054Z,23.50
2018-06-19T13:52:21.751Z,23.70
2018-06-19T13:54:49.949Z,23.90
2018-06-19T13:57:34.665Z,24.00
2018-06-19T14:00:03.600Z,24.30
2018-06-19T14:02:31.236Z,24.60
2018-06-19T14:04:59.254Z,24.80
2018-06-19T14:07:27.967Z,24.80
2018-06-19T14:10:06.988Z,24.70
2018-06-19T14:12:50.208Z,24.50
2018-06-19T14:15:18.861Z,24.30
2018-06-19T14:17:46.549Z,24.00
2018-06-19T14:20:14.191Z,23.90
2018-06-19T14:22:41.804Z,23.80
2018-06-19T14:25:09.451Z,23.60
2018-06-19T14:27:37.196Z,23.60
2018-06-19T14:30:05.623Z,23.60
2018-06-19T14:32:33.231Z,23.60
2018-06-19T14:35:00.846Z,23.60
2018-06-19T14:37:28.568Z,23.80
2018-06-19T14:39:56.202Z,24.00
2018-06-19T14:42:23.846Z,24.30
2018-06-19T14:44:51.490Z,24.60
2018-06-19T14:47:19.115Z,24.80
2018-06-19T14:49:46.747Z,25.00
2018-06-19T14:52:14.351Z,25.10
2018-06-19T14:54:41.990Z,25.30
2018-06-19T14:57:09.603Z,25.40
2018-06-19T14:59:37.233Z,25.30
2018-06-19T15:02:05.248Z,25.30
2018-06-19T15:04:32.938Z,25.50
2018-06-19T15:07:00.554Z,25.60
2018-06-19T15:09:28.152Z,25.70
2018-06-19T15:11:55.790Z,25.80
2018-06-19T15:14:23.470Z,25.80
2018-06-19T15:16:51.138Z,25.80
2018-06-19T15:19:18.781Z,25.60
2018-06-19T15:21:47.486Z,25.50
2018-06-19T15:24:15.207Z,25.40
2018-06-19T15:26:42.807Z,25.40
2018-06-19T15:29:10.444Z,25.40
2018-06-19T15:31:38.161Z,25.40
2018-06-19T15:34:05.810Z,25.50
2018-06-19T15:36:33.472Z,25.50
2018-06-19T15:39:01.115Z,25.60
2018-06-19T15:41:28.892Z,25.50
2018-06-19T15:43:56.509Z,25.30
2018-06-19T15:46:24.129Z,25.30
2018-06-19T15:48:51.801Z,25.10
2018-06-19T15:51:19.414Z,25.00
2018-06-19T15:53:47.033Z,24.90
2018-06-19T15:56:14.685Z,24.90
2018-06-19T15:58:42.322Z,24.90
2018-06-19T16:01:10.040Z,24.90
2018-06-19T16:03:37.705Z,24.80
2018-06-19T16:06:05.445Z,24.80
2018-06-19T16:08:33.214Z,24.80
2018-06-19T16:11:01.267Z,25.00
2018-06-19T16:13:29.001Z,24.90
2018-06-19T16:15:56.595Z,24.80
2018-06-19T16:18:24.536Z,24.80
2018-06-19T16:20:52.193Z,24.70
2018-06-19T16:23:19.868Z,24.70
2018-06-19T16:25:47.506Z,24.60
2018-06-19T16:28:15.865Z,24.50
2018-06-19T16:30:44.022Z,24.50
2018-06-19T16:33:11.731Z,24.40
2018-06-19T16:35:39.373Z,24.30
2018-06-19T16:38:07.002Z,24.20
2018-06-19T16:40:34.757Z,24.10
2018-06-19T16:43:02.426Z,24.10
2018-06-19T16:45:30.042Z,24.10
2018-06-19T16:47:57.673Z,24.10
2018-06-19T16:50:25.281Z,24.00
2018-06-19T16:52:52.937Z,24.00
2018-06-19T16:55:20.671Z,23.90
2018-06-19T16:57:48.314Z,24.00
2018-06-19T17:00:16.009Z,23.90
2018-06-19T17:02:43.674Z,23.80
2018-06-19T17:05:11.365Z,23.70
2018-06-19T17:07:43.699Z,23.60
2018-06-19T17:10:12.676Z,23.50
2018-06-19T17:12:40.503Z,23.50
2018-06-19T17:15:08.269Z,23.50
2018-06-19T17:17:35.933Z,23.40
2018-06-19T17:20:03.947Z,23.40
2018-06-19T17:22:31.561Z,23.30
2018-06-19T17:24:59.231Z,23.20
2018-06-19T17:27:27.057Z,23.10
2018-06-19T17:29:54.804Z,23.20
2018-06-19T17:34:50.095Z,23.10
2018-06-19T17:37:17.763Z,23.10
2018-06-19T17:39:45.397Z,23.10
2018-06-19T17:42:13.132Z,23.00
2018-06-19T17:44:40.878Z,23.20
2018-06-19T17:47:09.466Z,23.00
2018-06-19T17:49:37.132Z,23.00
2018-06-19T17:52:04.844Z,22.90
2018-06-19T17:54:32.933Z,22.90
2018-06-19T17:57:00.584Z,22.90
2018-06-19T17:59:28.348Z,22.80
2018-06-19T18:01:57.595Z,22.80
2018-06-19T18:04:25.225Z,22.80
2018-06-19T18:06:52.867Z,22.80
2018-06-19T18:09:20.967Z,22.80
2018-06-19T18:11:48.662Z,22.80
2018-06-19T18:14:16.342Z,22.80
2018-06-19T18:16:44.079Z,22.70
2018-06-19T18:19:11.881Z,22.60
2018-06-19T18:21:39.543Z,22.70
2018-06-19T18:24:07.214Z,22.60
2018-06-19T18:26:34.859Z,22.60
2018-06-19T18:29:02.603Z,22.50
2018-06-19T18:31:30.416Z,22.40
2018-06-19T18:33:58.105Z,22.40
2018-06-19T18:36:25.777Z,22.40
2018-06-19T18:38:53.403Z,22.40
2018-06-19T18:41:21.411Z,22.30
2018-06-19T18:43:49.198Z,22.30
2018-06-19T18:46:16.843Z,22.30
2018-06-19T18:48:44.479Z,22.20
2018-06-19T18:51:12.162Z,22.20
2018-06-19T18:53:39.797Z,22.20
2018-06-19T18:56:07.582Z,22.20
2018-06-19T18:58:35.263Z,22.20
2018-06-19T19:01:02.942Z,22.10
2018-06-19T19:03:30.578Z,22.10
2018-06-19T19:05:58.286Z,22.10
2018-06-19T19:08:26.162Z,22.10
2018-06-19T19:10:55.974Z,22.10
2018-06-19T19:13:24.866Z,22.10
2018-06-19T19:15:58.278Z,22.00
2018-06-19T19:18:31.560Z,22.00
2018-06-19T19:21:00.160Z,22.00
2018-06-19T19:23:28.570Z,21.90
2018-06-19T19:25:56.251Z,21.80
2018-06-19T19:28:29.520Z,21.80
2018-06-19T19:30:57.393Z,21.80
2018-06-19T19:33:25.009Z,21.80
2018-06-19T19:35:52.742Z,21.70
2018-06-19T19:38:25.958Z,21.70
2018-06-19T19:40:53.645Z,21.70
2018-06-19T19:43:21.391Z,21.70
2018-06-19T19:45:49.032Z,21.70
2018-06-19T19:48:22.278Z,21.60
2018-06-19T19:50:49.951Z,21.60
2018-06-19T19:53:17.946Z,21.60
2018-06-19T19:55:51.260Z,21.50
2018-06-19T19:58:25.168Z,21.50
2018-06-19T20:00:52.844Z,21.40
2018-06-19T20:03:20.480Z,21.40
2018-06-19T20:05:48.122Z,21.40
2018-06-19T20:08:18.986Z,21.30
2018-06-19T20:10:46.819Z,21.30
2018-06-19T20:13:15.541Z,21.20
2018-06-19T20:15:43.219Z,21.20
2018-06-19T20:18:10.860Z,21.10
2018-06-19T20:20:38.637Z,21.10
2018-06-19T20:23:06.277Z,21.10
2018-06-19T20:25:33.944Z,21.00
2018-06-19T20:28:01.600Z,21.00
2018-06-19T20:30:29.321Z,20.90
2018-06-19T20:32:56.937Z,20.90
2018-06-19T20:35:24.630Z,20.90
2018-06-19T20:37:52.340Z,20.90
2018-06-19T20:40:20.183Z,20.70
2018-06-19T20:42:47.919Z,20.60
2018-06-19T20:45:15.588Z,20.50
2018-06-19T20:47:43.250Z,20.50
2018-06-19T20:50:10.903Z,20.40
2018-06-19T20:52:38.617Z,20.40
2018-06-19T20:55:06.322Z,20.30
2018-06-19T20:57:34.026Z,20.20
2018-06-19T21:00:01.719Z,20.10
2018-06-19T21:02:29.454Z,20.10
2018-06-19T21:04:57.106Z,20.00
2018-06-19T21:07:24.733Z,19.90
2018-06-19T21:09:52.455Z,19.90
2018-06-19T21:12:20.173Z,19.80
2018-06-19T21:14:48.141Z,19.70
2018-06-19T21:17:15.818Z,19.70
2018-06-19T21:19:43.462Z,19.60
2018-06-19T21:22:11.105Z,19.60
2018-06-19T21:24:38.781Z,19.50
2018-06-19T21:27:06.475Z,19.50
2018-06-19T21:29:34.133Z,19.40
2018-06-19T21:32:01.820Z,19.30
2018-06-19T21:34:29.496Z,19.30
2018-06-19T21:36:57.149Z,19.20
2018-06-19T21:39:24.753Z,19.10
2018-06-19T21:41:52.391Z,19.00
2018-06-19T21:44:20.034Z,18.90
2018-06-19T21:46:47.670Z,18.80
2018-06-19T21:49:15.413Z,18.70
2018-06-19T21:51:43.079Z,18.60
2018-06-19T21:54:10.739Z,18.50
2018-06-19T21:56:38.346Z,18.40
2018-06-19T21:59:05.982Z,18.30
2018-06-19T22:01:33.642Z,18.20
2018-06-19T22:04:01.238Z,18.10
2018-06-19T22:06:28.869Z,18.00
2018-06-19T22:08:56.487Z,18.00
2018-06-19T22:11:24.639Z,17.90
2018-06-19T22:13:52.850Z,17.80
2018-06-19T22:16:20.476Z,17.80
2018-06-19T22:18:48.224Z,17.70
2018-06-19T22:21:15.899Z,17.60
2018-06-19T22:23:43.526Z,17.60
2018-06-19T22:26:11.174Z,17.50
2018-06-19T22:28:38.818Z,17.40
2018-06-19T22:31:06.453Z,17.40
2018-06-19T22:33:34.111Z,17.30
2018-06-19T22:36:01.772Z,17.30
2018-06-19T22:38:29.531Z,17.20
2018-06-19T22:40:57.193Z,17.20
2018-06-19T22:43:24.831Z,17.20
2018-06-19T22:45:52.490Z,17.20
2018-06-19T22:48:20.170Z,17.10
2018-06-19T22:50:47.818Z,17.10
2018-06-19T22:53:15.446Z,17.00
2018-06-19T22:55:43.166Z,17.00
2018-06-19T22:58:10.800Z,16.90
2018-06-19T23:00:38.467Z,16.80
2018-06-19T23:03:06.092Z,16.80
2018-06-19T23:05:35.298Z,16.70
2018-06-19T23:08:02.938Z,16.60
2018-06-19T23:10:30.667Z,16.60
2018-06-19T23:12:59.189Z,16.60
2018-06-19T23:15:26.837Z,16.60
2018-06-19T23:17:54.576Z,16.50
2018-06-19T23:20:22.373Z,16.50
2018-06-19T23:22:50.888Z,16.50
2018-06-19T23:25:18.934Z,16.40
2018-06-19T23:27:46.638Z,16.50
2018-06-19T23:30:14.732Z,16.50
2018-06-19T23:32:42.450Z,16.50
2018-06-19T23:35:10.520Z,16.40
2018-06-19T23:37:38.158Z,16.40
2018-06-19T23:40:05.805Z,16.40
2018-06-19T23:42:33.702Z,16.40
2018-06-19T23:45:02.247Z,16.50
2018-06-19T23:47:29.875Z,16.50
2018-06-19T23:49:57.568Z,16.50
2018-06-19T23:52:25.193Z,16.60
2018-06-19T23:54:52.823Z,16.60
2018-06-19T23:57:20.481Z,16.60
2018-06-19T23:59:48.130Z,16.60
